Time;durP1;ratioP1;P1;durP2;ratioP2;P2;SDS_P1;SDS_P2;PMS_P1;PMS_P2;Temp;Humidity;BMP_temperature;BMP_pressure;BME280_temperature;BME280_humidity;BME280_pressure;Samples;Min_cycle;Max_cycle;Signal;HPM_P1;HPM_P2
2022/02/21 00:00:25;;;;;;;9.03;2.00;;;5.80;99.90;;;;;;5066103;28;20036;-75
2022/02/21 00:02:53;;;;;;;15.57;2.57;;;5.80;99.90;;;;;;5067669;28;20062;-74
2022/02/21 00:05:20;;;;;;;19.63;3.37;;;5.80;99.90;;;;;;5095804;28;20432;-76
2022/02/21 00:07:47;;;;;;;18.20;3.80;;;5.90;99.90;;;;;;5083132;28;20043;-75
2022/02/21 00:10:14;;;;;;;20.27;2.57;;;5.90;99.90;;;;;;5065091;28;20082;-73
2022/02/21 00:12:41;;;;;;;19.90;4.20;;;5.90;99.90;;;;;;5071421;28;20498;-74
2022/02/21 00:15:08;;;;;;;21.70;3.17;;;5.80;99.90;;;;;;5075555;28;20048;-76
2022/02/21 00:17:35;;;;;;;18.97;4.33;;;5.90;99.90;;;;;;5092960;28;20510;-75
2022/02/21 00:20:01;;;;;;;27.57;4.60;;;5.90;99.90;;;;;;5092380;28;20510;-75
2022/02/21 00:22:27;;;;;;;23.57;4.07;;;5.90;99.90;;;;;;5092824;28;20116;-76
2022/02/21 00:24:55;;;;;;;21.40;2.93;;;6.00;99.90;;;;;;5068910;28;20130;-73
2022/02/21 00:27:21;;;;;;;20.88;3.15;;;6.10;99.90;;;;;;5103244;28;20135;-74
2022/02/21 00:29:48;;;;;;;18.63;3.30;;;6.00;99.90;;;;;;5102700;28;20073;-76
2022/02/21 00:32:14;;;;;;;20.07;3.87;;;6.00;99.90;;;;;;5069809;28;20032;-75
2022/02/21 00:34:40;;;;;;;20.43;3.93;;;5.90;99.90;;;;;;5052493;28;20040;-77
2022/02/21 00:37:06;;;;;;;22.53;3.17;;;6.00;99.90;;;;;;5095575;28;20081;-75
2022/02/21 00:39:32;;;;;;;18.87;3.60;;;6.00;99.90;;;;;;5087749;28;20047;-73
2022/02/21 00:41:58;;;;;;;19.47;3.20;;;5.90;99.90;;;;;;5079169;28;20134;-74
2022/02/21 00:44:24;;;;;;;22.73;3.30;;;5.90;99.90;;;;;;5082156;28;20535;-74
2022/02/21 00:46:50;;;;;;;23.57;3.57;;;5.90;99.90;;;;;;5075920;28;20044;-75
2022/02/21 00:49:16;;;;;;;20.20;3.77;;;5.90;99.90;;;;;;5071314;28;20037;-74
2022/02/21 00:51:41;;;;;;;18.60;3.20;;;5.90;99.90;;;;;;5059081;28;20146;-77
2022/02/21 00:54:07;;;;;;;14.80;2.70;;;5.90;99.90;;;;;;5070970;28;20047;-76
2022/02/21 00:56:33;;;;;;;20.57;3.13;;;5.90;99.90;;;;;;5056822;28;20477;-77
2022/02/21 00:58:59;;;;;;;18.37;3.10;;;5.90;99.90;;;;;;5064278;28;20465;-75
2022/02/21 01:01:24;;;;;;;20.17;3.80;;;5.90;99.90;;;;;;5104089;28;20101;-75
2022/02/21 01:03:50;;;;;;;17.57;3.93;;;5.90;99.90;;;;;;5071378;28;20682;-75
2022/02/21 01:06:17;;;;;;;16.70;3.10;;;5.80;99.90;;;;;;5098230;28;20047;-74
2022/02/21 01:08:44;;;;;;;18.77;3.87;;;5.80;99.90;;;;;;5078442;28;20583;-75
2022/02/21 01:11:12;;;;;;;14.67;3.37;;;5.80;99.90;;;;;;5097190;28;20059;-73
2022/02/21 01:13:38;;;;;;;16.23;3.30;;;5.90;99.90;;;;;;5089563;28;21382;-76
2022/02/21 01:16:04;;;;;;;14.60;3.77;;;5.90;99.90;;;;;;5086163;28;20035;-74
2022/02/21 01:18:33;;;;;;;16.47;4.30;;;5.90;99.90;;;;;;5063906;28;20577;-75
2022/02/21 01:21:01;;;;;;;20.50;3.60;;;5.90;99.90;;;;;;5085464;28;20107;-75
2022/02/21 01:23:30;;;;;;;17.77;3.20;;;5.90;99.90;;;;;;5113744;28;20048;-75
2022/02/21 01:25:56;;;;;;;19.00;3.63;;;5.90;99.90;;;;;;5063402;28;20048;-74
2022/02/21 01:28:21;;;;;;;15.20;3.27;;;5.80;99.90;;;;;;5091191;28;20040;-76
2022/02/21 01:30:47;;;;;;;16.60;3.53;;;5.90;99.90;;;;;;5083726;28;20504;-75
2022/02/21 01:33:13;;;;;;;17.17;3.37;;;5.90;99.90;;;;;;5078814;28;20036;-74
2022/02/21 01:35:39;;;;;;;18.17;4.47;;;5.80;99.90;;;;;;5082897;28;20040;-76
2022/02/21 01:38:04;;;;;;;18.60;3.97;;;5.90;99.90;;;;;;5053792;28;20051;-74
2022/02/21 01:40:31;;;;;;;18.17;4.33;;;5.90;99.90;;;;;;5073759;28;20077;-75
2022/02/21 01:43:03;;;;;;;20.33;4.40;;;5.80;99.90;;;;;;5057453;28;20127;-75
2022/02/21 01:45:29;;;;;;;22.58;4.25;;;5.80;99.90;;;;;;5097582;28;20544;-75
2022/02/21 01:47:55;;;;;;;21.43;5.37;;;5.80;99.90;;;;;;5070067;28;20136;-76
2022/02/21 01:50:21;;;;;;;22.13;4.73;;;5.80;99.90;;;;;;5093731;28;20044;-75
2022/02/21 01:52:48;;;;;;;20.90;4.10;;;5.80;99.90;;;;;;5073966;28;20181;-75
2022/02/21 01:55:14;;;;;;;17.93;4.23;;;5.90;99.90;;;;;;5077077;28;20060;-74
2022/02/21 01:57:44;;;;;;;24.92;5.03;;;5.90;99.90;;;;;;5057992;28;20044;-74
2022/02/21 02:00:10;;;;;;;;;;;5.90;99.90;;;;;;5071482;28;20052;-74
2022/02/21 02:02:36;;;;;;;20.63;4.43;;;5.90;99.90;;;;;;5073581;28;19947;-76
2022/02/21 02:05:02;;;;;;;26.67;5.63;;;5.90;99.90;;;;;;5097812;28;20139;-75
2022/02/21 02:07:36;;;;;;;24.73;5.30;;;5.80;99.90;;;;;;5091919;28;20439;-76
2022/02/21 02:10:02;;;;;;;18.27;4.47;;;5.80;99.90;;;;;;5125345;27;20123;-78
2022/02/21 02:12:28;;;;;;;28.07;6.17;;;5.80;99.90;;;;;;5064990;28;20118;-75
2022/02/21 02:14:54;;;;;;;19.40;3.87;;;5.80;99.90;;;;;;5103705;28;20119;-77
2022/02/21 02:17:20;;;;;;;18.13;4.20;;;5.80;99.90;;;;;;5083590;28;20043;-77
2022/02/21 02:19:47;;;;;;;20.00;3.75;;;5.80;99.90;;;;;;5080312;28;20137;-76
2022/02/21 02:22:15;;;;;;;22.90;5.17;;;5.80;99.90;;;;;;5067569;28;20112;-78
2022/02/21 02:24:42;;;;;;;20.37;3.83;;;5.80;99.90;;;;;;5074642;28;20052;-76
2022/02/21 02:27:09;;;;;;;25.95;5.20;;;5.80;99.90;;;;;;5124544;27;20559;-76
2022/02/21 02:29:36;;;;;;;22.17;4.73;;;5.70;99.90;;;;;;5104642;28;20047;-77
2022/02/21 02:32:04;;;;;;;18.70;3.33;;;5.70;99.90;;;;;;5088914;28;20044;-75
2022/02/21 02:34:29;;;;;;;21.85;4.45;;;5.70;99.90;;;;;;5059992;28;20048;-76
2022/02/21 02:36:55;;;;;;;17.13;4.32;;;5.70;99.90;;;;;;5094684;28;20035;-75
2022/02/21 02:39:24;;;;;;;22.30;4.90;;;5.70;99.90;;;;;;5079832;28;20047;-75
2022/02/21 02:41:51;;;;;;;17.50;3.60;;;5.70;99.90;;;;;;5084737;28;20044;-75
2022/02/21 02:44:18;;;;;;;19.42;4.03;;;5.70;99.90;;;;;;5096411;28;20048;-74
2022/02/21 02:46:44;;;;;;;18.13;4.00;;;5.60;99.90;;;;;;5082038;28;20166;-74
2022/02/21 02:49:10;;;;;;;16.67;3.90;;;5.60;99.90;;;;;;5058167;28;20138;-73
2022/02/21 02:51:35;;;;;;;19.37;4.87;;;5.50;99.90;;;;;;5088248;28;20047;-75
2022/02/21 02:54:05;;;;;;;17.60;4.27;;;5.50;99.90;;;;;;5067015;28;20630;-74
2022/02/21 02:56:31;;;;;;;17.48;3.55;;;5.50;99.90;;;;;;5064494;28;20080;-76
2022/02/21 02:59:00;;;;;;;15.40;3.10;;;5.50;99.90;;;;;;5072239;28;20035;-74
2022/02/21 03:01:26;;;;;;;16.00;2.77;;;5.60;99.90;;;;;;5065615;28;20056;-76
2022/02/21 03:03:52;;;;;;;15.70;2.90;;;5.50;99.90;;;;;;5066367;28;20545;-76
2022/02/21 03:06:18;;;;;;;13.97;3.30;;;5.50;99.90;;;;;;5118382;27;20040;-77
2022/02/21 03:08:44;;;;;;;22.33;4.63;;;5.50;99.90;;;;;;5095089;28;20052;-75
2022/02/21 03:11:10;;;;;;;15.00;3.57;;;5.50;99.90;;;;;;5097740;28;20048;-73
2022/02/21 03:13:35;;;;;;;14.10;3.23;;;5.50;99.90;;;;;;5109292;27;20383;-73
2022/02/21 03:16:01;;;;;;;17.03;3.33;;;5.50;99.90;;;;;;5084465;28;20067;-77
2022/02/21 03:18:28;;;;;;;16.40;3.13;;;5.30;99.90;;;;;;5084364;28;20109;-78
2022/02/21 03:20:54;;;;;;;17.40;3.73;;;5.10;99.90;;;;;;5083680;28;20056;-74
2022/02/21 03:23:20;;;;;;;17.47;4.10;;;5.00;99.90;;;;;;5081599;28;20081;-77
2022/02/21 03:25:45;;;;;;;16.10;3.90;;;4.70;99.90;;;;;;5068510;28;20075;-76
2022/02/21 03:28:11;;;;;;;18.37;3.97;;;4.60;99.90;;;;;;5033896;28;20410;-81
2022/02/21 03:30:37;;;;;;;21.77;4.90;;;4.50;99.90;;;;;;5050588;28;20059;-80
2022/02/21 03:33:05;;;;;;;25.73;5.27;;;4.60;99.90;;;;;;5050498;28;20458;-80
2022/02/21 03:35:30;;;;;;;23.23;4.97;;;4.50;99.90;;;;;;5056333;28;20052;-80
2022/02/21 03:37:56;;;;;;;19.47;4.40;;;4.40;99.90;;;;;;5062972;28;20191;-80
2022/02/21 03:40:22;;;;;;;27.17;5.03;;;4.40;99.90;;;;;;5080075;28;20045;-81
2022/02/21 03:42:49;;;;;;;23.10;4.63;;;4.40;99.90;;;;;;5065508;28;20048;-81
2022/02/21 03:45:16;;;;;;;23.10;4.63;;;4.50;99.90;;;;;;5068492;28;20055;-81
2022/02/21 03:47:42;;;;;;;17.17;4.00;;;4.60;99.90;;;;;;5050881;28;20056;-80
2022/02/21 03:50:08;;;;;;;17.53;4.60;;;4.60;99.90;;;;;;5084334;28;20070;-74
2022/02/21 03:52:34;;;;;;;18.17;3.60;;;4.70;99.90;;;;;;5050633;28;20054;-76
2022/02/21 03:54:59;;;;;;;26.10;5.33;;;4.80;99.90;;;;;;5080558;28;20036;-75
2022/02/21 03:57:25;;;;;;;22.63;5.03;;;4.80;99.90;;;;;;5047920;28;20131;-76
2022/02/21 03:59:54;;;;;;;19.27;4.67;;;4.80;99.90;;;;;;5038339;28;20251;-75
2022/02/21 04:02:20;;;;;;;15.43;3.70;;;4.90;99.90;;;;;;5049820;28;20039;-76
2022/02/21 04:04:45;;;;;;;21.43;4.90;;;5.00;99.90;;;;;;5049585;28;20674;-74
2022/02/21 04:07:11;;;;;;;15.47;3.87;;;5.00;99.90;;;;;;5067004;28;20048;-76
2022/02/21 04:09:37;;;;;;;15.63;3.20;;;5.00;99.90;;;;;;5082305;28;20048;-75
2022/02/21 04:12:04;;;;;;;14.60;4.13;;;5.10;99.90;;;;;;5049874;28;20083;-75
2022/02/21 04:14:39;;;;;;;18.80;5.13;;;5.10;99.90;;;;;;5083530;28;20131;-75
2022/02/21 04:17:04;;;;;;;15.30;3.27;;;5.20;99.90;;;;;;5066955;28;20071;-74
2022/02/21 04:19:31;;;;;;;15.93;3.77;;;5.10;99.90;;;;;;5083510;28;20169;-77
2022/02/21 04:21:59;;;;;;;17.90;3.90;;;5.10;99.90;;;;;;5091932;28;20045;-76
2022/02/21 04:24:25;;;;;;;22.13;5.63;;;5.10;99.90;;;;;;5047218;28;20055;-76
2022/02/21 04:26:51;;;;;;;22.07;4.37;;;5.00;99.90;;;;;;5063478;28;20045;-75
2022/02/21 04:29:18;;;;;;;18.57;4.90;;;5.00;99.90;;;;;;5069402;28;20380;-76
2022/02/21 04:31:44;;;;;;;22.93;4.27;;;4.90;99.90;;;;;;5050386;28;20036;-76
2022/02/21 04:34:09;;;;;;;18.47;4.27;;;5.00;99.90;;;;;;5065279;28;20051;-78
2022/02/21 04:36:38;;;;;;;21.40;4.47;;;4.90;99.90;;;;;;5079551;28;20059;-76
2022/02/21 04:39:04;;;;;;;20.47;5.27;;;4.90;99.90;;;;;;5063025;28;20036;-76
2022/02/21 04:41:30;;;;;;;21.43;3.77;;;4.90;99.90;;;;;;5063765;28;20084;-76
2022/02/21 04:44:00;;;;;;;19.10;4.10;;;4.80;99.90;;;;;;5096744;28;20407;-75
2022/02/21 04:46:26;;;;;;;21.63;4.33;;;4.90;99.90;;;;;;5099959;28;20048;-77
2022/02/21 04:48:51;;;;;;;18.10;3.97;;;4.80;99.90;;;;;;5066921;28;20293;-77
2022/02/21 04:51:17;;;;;;;20.37;4.20;;;4.90;99.90;;;;;;5083870;28;20422;-75
2022/02/21 04:53:43;;;;;;;17.97;3.60;;;4.90;99.90;;;;;;5066547;28;20424;-76
2022/02/21 04:56:09;;;;;;;19.90;3.90;;;4.90;99.90;;;;;;5083343;28;20083;-76
2022/02/21 04:58:38;;;;;;;17.47;4.40;;;5.00;99.90;;;;;;5078219;28;20102;-77
2022/02/21 05:01:04;;;;;;;19.77;4.37;;;5.00;99.90;;;;;;5037672;28;20524;-76
2022/02/21 05:03:29;;;;;;;17.83;3.63;;;4.90;99.90;;;;;;5054132;28;20047;-77
2022/02/21 05:05:55;;;;;;;20.50;3.87;;;5.00;99.90;;;;;;5068914;28;20298;-76
2022/02/21 05:08:21;;;;;;;18.10;3.77;;;5.00;99.90;;;;;;5066825;28;21723;-78
2022/02/21 05:10:47;;;;;;;20.23;3.77;;;5.00;99.90;;;;;;5049769;28;20040;-76
2022/02/21 05:13:12;;;;;;;16.93;3.57;;;5.10;99.90;;;;;;5083066;28;20113;-77
2022/02/21 05:15:38;;;;;;;16.90;4.17;;;5.10;99.90;;;;;;5083959;28;20544;-75
2022/02/21 05:18:04;;;;;;;19.27;4.13;;;5.10;99.90;;;;;;5084122;28;20052;-78
2022/02/21 05:20:30;;;;;;;18.13;4.40;;;5.10;99.90;;;;;;5049950;28;20143;-76
2022/02/21 05:22:56;;;;;;;19.87;3.67;;;5.10;99.90;;;;;;5065899;28;20510;-74
2022/02/21 05:25:22;;;;;;;19.07;4.13;;;5.10;99.90;;;;;;5101037;28;20060;-77
2022/02/21 05:27:47;;;;;;;19.20;4.43;;;5.00;99.90;;;;;;5089178;28;20039;-76
2022/02/21 05:30:14;;;;;;;17.87;3.70;;;5.00;99.90;;;;;;5054163;28;20052;-76
2022/02/21 05:32:42;;;;;;;17.53;4.50;;;5.00;99.90;;;;;;5103118;28;20779;-78
2022/02/21 05:35:09;;;;;;;19.37;3.97;;;5.00;99.90;;;;;;5053072;28;20074;-76
2022/02/21 05:37:35;;;;;;;19.60;3.47;;;5.00;99.90;;;;;;5121524;27;20043;-75
2022/02/21 05:40:03;;;;;;;22.60;3.50;;;5.00;99.90;;;;;;5068123;28;20074;-75
2022/02/21 05:42:30;;;;;;;18.73;4.87;;;5.10;99.90;;;;;;5070497;28;20094;-76
2022/02/21 05:44:56;;;;;;;17.47;3.57;;;5.10;99.90;;;;;;5120227;27;20056;-76
2022/02/21 05:47:22;;;;;;;19.10;4.17;;;5.10;99.90;;;;;;5086850;28;20059;-76
2022/02/21 05:49:48;;;;;;;16.83;3.43;;;5.10;99.90;;;;;;5087426;28;20719;-74
2022/02/21 05:52:14;;;;;;;16.83;3.53;;;5.20;99.90;;;;;;5069849;28;20052;-76
2022/02/21 05:54:39;;;;;;;21.37;4.30;;;5.20;99.90;;;;;;5053222;28;20052;-75
2022/02/21 05:57:05;;;;;;;17.60;3.50;;;5.20;99.90;;;;;;5068794;28;20050;-77
2022/02/21 05:59:33;;;;;;;17.17;4.27;;;5.20;99.90;;;;;;5068201;28;20036;-78
2022/02/21 06:01:59;;;;;;;15.27;4.13;;;5.30;99.90;;;;;;5065011;28;20040;-75
2022/02/21 06:04:25;;;;;;;15.73;3.10;;;5.20;99.90;;;;;;5069256;28;20047;-77
2022/02/21 06:06:50;;;;;;;17.90;3.60;;;5.20;99.90;;;;;;5064780;28;20811;-75
2022/02/21 06:09:16;;;;;;;17.80;3.20;;;5.30;99.90;;;;;;5046404;28;20048;-77
2022/02/21 06:11:42;;;;;;;16.87;4.17;;;5.30;99.90;;;;;;5053184;28;20099;-75
2022/02/21 06:14:08;;;;;;;18.83;3.47;;;5.30;99.90;;;;;;5052018;28;20058;-76
2022/02/21 06:16:33;;;;;;;17.80;3.60;;;5.30;99.90;;;;;;5069480;28;20402;-77
2022/02/21 06:19:00;;;;;;;23.08;3.50;;;5.30;99.90;;;;;;5051778;28;20525;-78
2022/02/21 06:21:26;;;;;;;19.30;4.00;;;5.30;99.90;;;;;;5099551;28;20058;-76
2022/02/21 06:23:52;;;;;;;13.43;3.50;;;5.30;99.90;;;;;;5064936;28;20044;-77
2022/02/21 06:26:18;;;;;;;16.90;3.50;;;5.30;99.90;;;;;;5082311;28;20206;-77
2022/02/21 06:28:44;;;;;;;18.27;3.93;;;5.30;99.90;;;;;;5095414;28;20605;-77
2022/02/21 06:31:09;;;;;;;18.83;3.53;;;5.30;99.90;;;;;;5101064;27;20051;-74
2022/02/21 06:33:39;;;;;;;20.60;3.63;;;5.30;99.90;;;;;;5031479;28;20043;-74
2022/02/21 06:36:05;;;;;;;13.88;2.75;;;5.40;99.90;;;;;;5064885;28;20478;-75
2022/02/21 06:38:32;;;;;;;22.13;4.20;;;5.40;99.90;;;;;;5098456;27;20497;-77
2022/02/21 06:41:01;;;;;;;18.37;3.80;;;5.30;99.90;;;;;;5098953;27;20040;-76
2022/02/21 06:43:26;;;;;;;15.57;3.20;;;5.30;99.90;;;;;;5065602;28;20079;-74
2022/02/21 06:45:52;;;;;;;16.27;3.87;;;5.30;99.90;;;;;;5098654;27;20060;-77
2022/02/21 06:48:18;;;;;;;15.87;3.30;;;5.30;99.90;;;;;;5048877;28;20381;-76
2022/02/21 06:50:44;;;;;;;17.60;3.10;;;5.30;99.90;;;;;;5090615;27;20036;-74
2022/02/21 06:53:10;;;;;;;20.43;3.30;;;5.40;99.90;;;;;;5054924;28;20454;-76
2022/02/21 06:55:36;;;;;;;16.90;3.73;;;5.30;99.90;;;;;;5051003;28;20093;-76
2022/02/21 06:58:02;;;;;;;16.50;3.50;;;5.30;99.90;;;;;;5070746;28;20044;-75
2022/02/21 07:00:28;;;;;;;15.88;4.43;;;5.30;99.90;;;;;;5074727;28;20052;-73
2022/02/21 07:02:54;;;;;;;22.23;4.53;;;5.30;99.90;;;;;;5046605;28;20413;-76
2022/02/21 07:05:20;;;;;;;17.80;3.87;;;5.30;99.90;;;;;;5051901;28;20109;-76
2022/02/21 07:07:45;;;;;;;20.47;4.03;;;5.30;99.90;;;;;;5053801;28;20089;-76
2022/02/21 07:10:12;;;;;;;20.05;4.43;;;5.30;99.90;;;;;;5069502;28;20494;-76
2022/02/21 07:12:37;;;;;;;18.33;4.13;;;5.30;99.90;;;;;;5090843;28;20413;-77
2022/02/21 07:15:04;;;;;;;20.53;3.67;;;5.30;99.90;;;;;;5092091;28;20048;-76
2022/02/21 07:17:37;;;;;;;18.47;4.20;;;5.30;99.90;;;;;;5080506;28;20154;-76
2022/02/21 07:20:03;;;;;;;14.37;3.27;;;5.30;99.90;;;;;;5072227;28;20121;-76
2022/02/21 07:22:29;;;;;;;21.10;4.77;;;5.30;99.90;;;;;;5066359;28;20052;-77
2022/02/21 07:25:04;;;;;;;21.13;5.25;;;5.40;99.90;;;;;;5064100;28;20094;-75
2022/02/21 07:27:30;;;;;;;21.53;3.70;;;5.40;99.90;;;;;;5051019;28;20143;-75
2022/02/21 07:29:55;;;;;;;22.23;4.90;;;5.30;99.90;;;;;;5074671;28;20147;-75
2022/02/21 07:32:21;;;;;;;20.67;3.53;;;5.30;99.90;;;;;;5099964;28;20510;-75
2022/02/21 07:34:47;;;;;;;21.67;4.90;;;5.30;99.90;;;;;;5102009;28;20059;-76
2022/02/21 07:37:13;;;;;;;19.03;4.00;;;5.30;99.90;;;;;;5052790;28;20125;-75
2022/02/21 07:39:39;;;;;;;22.83;4.73;;;5.40;99.90;;;;;;5088652;28;20501;-76
2022/02/21 07:42:05;;;;;;;21.80;4.53;;;5.40;99.90;;;;;;5074463;28;20094;-75
2022/02/21 07:44:31;;;;;;;21.15;4.18;;;5.40;99.90;;;;;;5080216;28;20530;-76
2022/02/21 07:47:01;;;;;;;17.95;4.32;;;5.40;99.90;;;;;;5061544;28;20028;-75
2022/02/21 07:49:30;;;;;;;21.03;4.30;;;5.40;99.90;;;;;;5063305;28;20044;-77
2022/02/21 07:51:56;;;;;;;19.10;3.90;;;5.40;99.90;;;;;;5068927;28;20747;-76
2022/02/21 07:54:24;;;;;;;14.88;3.83;;;5.50;99.90;;;;;;5103192;28;20122;-77
2022/02/21 07:56:51;;;;;;;16.67;3.60;;;5.50;99.90;;;;;;5057484;28;20043;-75
2022/02/21 07:59:19;;;;;;;25.63;4.27;;;5.50;99.90;;;;;;5088816;28;20053;-76
2022/02/21 08:01:45;;;;;;;20.57;4.27;;;5.50;99.90;;;;;;5065567;28;20135;-74
2022/02/21 08:04:11;;;;;;;18.93;4.57;;;5.50;99.90;;;;;;5094368;28;20134;-77
2022/02/21 08:06:39;;;;;;;22.67;4.33;;;5.50;99.90;;;;;;5079472;28;20043;-75
2022/02/21 08:09:05;;;;;;;21.07;4.90;;;5.50;99.90;;;;;;5086239;28;20048;-77
2022/02/21 08:11:40;;;;;;;19.88;4.45;;;5.60;99.90;;;;;;5062046;28;20059;-76
2022/02/21 08:14:06;;;;;;;17.43;4.27;;;5.60;99.90;;;;;;5047318;28;20059;-75
2022/02/21 08:16:32;;;;;;;14.57;3.47;;;5.60;99.90;;;;;;5075082;28;20052;-74
2022/02/21 08:19:00;;;;;;;18.73;3.90;;;5.60;99.90;;;;;;5063034;28;20066;-76
2022/02/21 08:21:26;;;;;;;19.48;3.80;;;5.60;99.90;;;;;;5095342;28;20064;-77
2022/02/21 08:23:55;;;;;;;23.27;4.53;;;5.60;99.90;;;;;;5059289;28;20050;-74
2022/02/21 08:26:21;;;;;;;21.55;3.78;;;5.50;99.90;;;;;;5067990;28;20098;-75
2022/02/21 08:28:46;;;;;;;20.40;3.83;;;5.50;99.90;;;;;;5094399;28;20487;-76
2022/02/21 08:31:12;;;;;;;21.43;3.60;;;5.40;99.90;;;;;;5064009;28;20049;-76
2022/02/21 08:33:38;;;;;;;19.30;4.40;;;5.30;99.90;;;;;;5058741;28;20047;-74
2022/02/21 08:36:04;;;;;;;24.40;4.03;;;5.20;99.90;;;;;;5065323;28;20153;-75
2022/02/21 08:38:30;;;;;;;22.73;4.50;;;5.00;99.90;;;;;;5090368;28;20040;-75
2022/02/21 08:40:56;;;;;;;18.37;4.10;;;5.00;99.90;;;;;;5069666;28;20612;-76
2022/02/21 08:43:27;;;;;;;26.80;4.70;;;4.90;99.90;;;;;;5089948;28;20052;-76
2022/02/21 08:45:55;;;;;;;26.37;4.90;;;4.80;99.90;;;;;;5089012;28;20127;-75
2022/02/21 08:48:21;;;;;;;17.70;3.90;;;4.70;99.90;;;;;;5045713;28;20049;-75
2022/02/21 08:50:47;;;;;;;24.30;4.63;;;4.60;99.90;;;;;;5086800;28;20041;-75
2022/02/21 08:53:13;;;;;;;20.37;4.37;;;4.50;99.90;;;;;;5097948;28;20094;-76
2022/02/21 08:55:38;;;;;;;17.57;3.50;;;4.40;99.90;;;;;;5057711;28;20044;-76
2022/02/21 08:58:05;;;;;;;20.17;4.07;;;4.40;99.90;;;;;;5050785;28;20352;-76
2022/02/21 09:00:30;;;;;;;11.47;2.53;;;4.20;99.90;;;;;;5102629;28;20052;-76
2022/02/21 09:02:58;;;;;;;9.77;2.07;;;4.10;99.90;;;;;;5079011;28;20033;-74
2022/02/21 09:05:25;;;;;;;12.57;2.73;;;3.90;99.90;;;;;;5072155;28;20494;-74
2022/02/21 09:07:52;;;;;;;17.43;3.80;;;3.70;99.90;;;;;;5073330;28;20105;-75
2022/02/21 09:10:18;;;;;;;15.53;2.70;;;3.60;99.90;;;;;;5084050;28;20044;-73
2022/02/21 09:12:43;;;;;;;8.80;1.60;;;3.50;99.90;;;;;;5099677;28;20512;-75
2022/02/21 09:15:12;;;;;;;9.33;1.97;;;3.40;99.90;;;;;;5070684;28;20484;-76
2022/02/21 09:17:38;;;;;;;11.13;2.60;;;3.30;99.90;;;;;;5046462;28;20551;-75
2022/02/21 09:20:05;;;;;;;7.93;1.70;;;3.20;99.90;;;;;;5082923;28;20135;-77
2022/02/21 09:22:30;;;;;;;7.53;1.63;;;3.10;99.90;;;;;;5066939;28;20123;-74
2022/02/21 09:24:57;;;;;;;9.30;2.07;;;3.10;99.90;;;;;;5075022;28;20324;-76
2022/02/21 09:27:25;;;;;;;8.10;1.80;;;3.10;99.90;;;;;;5068863;28;20352;-77
2022/02/21 09:29:51;;;;;;;9.43;1.70;;;3.20;99.90;;;;;;5096118;28;20084;-75
2022/02/21 09:32:17;;;;;;;10.10;1.57;;;3.10;99.90;;;;;;5046535;28;20800;-76
2022/02/21 09:34:43;;;;;;;8.30;1.93;;;3.10;99.90;;;;;;5071199;28;20066;-76
2022/02/21 09:37:09;;;;;;;7.50;1.83;;;3.10;99.90;;;;;;5110962;27;20036;-76
2022/02/21 09:39:35;;;;;;;6.57;1.70;;;3.10;99.90;;;;;;5070972;28;20059;-77
2022/02/21 09:42:01;;;;;;;8.40;1.60;;;3.00;99.90;;;;;;5072889;28;20044;-77
2022/02/21 09:44:30;;;;;;;6.57;1.73;;;3.00;99.90;;;;;;5060948;28;20063;-77
2022/02/21 09:46:57;;;;;;;7.83;1.90;;;3.10;99.90;;;;;;5104232;27;20113;-77
2022/02/21 09:49:29;;;;;;;8.80;2.17;;;2.90;99.90;;;;;;5080831;28;20046;-74
2022/02/21 09:51:55;;;;;;;11.55;2.38;;;2.80;99.90;;;;;;5066418;28;20032;-75
2022/02/21 09:54:21;;;;;;;9.67;2.00;;;2.70;99.90;;;;;;5046579;28;20047;-76
2022/02/21 09:56:48;;;;;;;8.33;2.50;;;2.70;99.90;;;;;;5063750;28;20055;-78
2022/02/21 09:59:14;;;;;;;6.20;1.60;;;2.60;99.90;;;;;;5074317;28;20040;-75
2022/02/21 10:01:43;;;;;;;8.07;1.93;;;2.60;99.90;;;;;;5045620;28;20518;-77
2022/02/21 10:04:20;;;;;;;10.13;1.93;;;2.70;99.90;;;;;;5058576;28;20064;-77
2022/02/21 10:06:49;;;;;;;8.73;2.87;;;2.70;99.90;;;;;;5110840;27;20441;-75
2022/02/21 10:09:16;;;;;;;9.00;2.23;;;2.70;99.90;;;;;;5068045;28;20048;-74
2022/02/21 10:11:45;;;;;;;9.83;2.00;;;2.70;99.90;;;;;;5073527;28;20040;-74
2022/02/21 10:14:13;;;;;;;7.27;2.20;;;2.70;99.90;;;;;;5055349;28;20040;-75
2022/02/21 10:16:43;;;;;;;9.57;2.77;;;2.70;99.90;;;;;;5074929;28;20067;-77
2022/02/21 10:19:12;;;;;;;7.90;2.30;;;2.80;99.90;;;;;;5114166;27;20063;-78
2022/02/21 10:21:52;;;;;;;7.87;2.23;;;2.80;99.90;;;;;;5107263;27;20303;-77
2022/02/21 10:24:18;;;;;;;9.27;2.30;;;2.80;99.90;;;;;;5082165;28;20052;-75
2022/02/21 10:26:44;;;;;;;8.57;2.23;;;2.80;99.90;;;;;;5046773;28;20064;-75
2022/02/21 10:29:11;;;;;;;8.00;2.57;;;2.80;99.90;;;;;;5054834;28;20082;-74
2022/02/21 10:31:37;;;;;;;5.87;2.33;;;2.80;99.90;;;;;;5083884;28;20040;-74
2022/02/21 10:34:06;;;;;;;7.73;2.40;;;2.80;99.90;;;;;;5055787;28;20245;-74
2022/02/21 10:36:36;;;;;;;9.60;2.70;;;2.70;99.90;;;;;;5048481;28;20044;-74
2022/02/21 10:39:12;;;;;;;7.07;2.70;;;2.70;99.90;;;;;;5108361;27;20040;-76
2022/02/21 10:41:54;;;;;;;8.67;3.30;;;2.70;99.90;;;;;;5056489;28;20044;-74
2022/02/21 10:44:22;;;;;;;10.63;3.67;;;2.70;99.90;;;;;;5107140;27;20084;-75
2022/02/21 10:47:09;;;;;;;10.37;3.37;;;2.70;99.90;;;;;;5062147;28;20474;-75
2022/02/21 10:49:44;;;;;;;9.80;3.10;;;2.70;99.90;;;;;;5071151;28;20240;-74
2022/02/21 10:52:22;;;;;;;6.80;2.30;;;2.60;99.90;;;;;;5048891;28;20056;-75
2022/02/21 10:54:48;;;;;;;7.43;2.33;;;2.70;99.90;;;;;;5092865;28;20044;-75
2022/02/21 10:57:18;;;;;;;10.33;3.47;;;2.70;99.90;;;;;;5066914;28;20078;-75
2022/02/21 10:59:46;;;;;;;8.43;2.83;;;2.70;99.90;;;;;;5103790;27;20542;-75
2022/02/21 11:02:17;;;;;;;9.17;3.33;;;2.70;99.90;;;;;;5100367;27;20044;-74
2022/02/21 11:04:44;;;;;;;9.47;3.63;;;2.80;99.90;;;;;;5102267;27;20041;-75
2022/02/21 11:07:14;;;;;;;8.53;4.53;;;2.60;99.90;;;;;;5097014;28;20051;-75
2022/02/21 11:09:42;;;;;;;11.50;5.53;;;2.70;99.90;;;;;;5049253;28;20198;-76
2022/02/21 11:12:08;;;;;;;12.27;5.10;;;2.70;99.90;;;;;;5071163;28;20247;-75
2022/02/21 11:14:35;;;;;;;13.17;5.47;;;2.70;99.90;;;;;;5070049;28;20456;-75
2022/02/21 11:17:04;;;;;;;12.90;5.70;;;2.80;99.90;;;;;;5065608;28;20518;-75
2022/02/21 11:19:30;;;;;;;13.57;6.17;;;2.90;99.90;;;;;;5053537;28;20064;-75
2022/02/21 11:21:56;;;;;;;19.43;6.17;;;3.10;99.90;;;;;;5099575;27;20080;-74
2022/02/21 11:24:25;;;;;;;16.47;5.50;;;3.20;99.90;;;;;;5052876;28;20071;-75
2022/02/21 11:27:10;;;;;;;17.97;6.63;;;3.40;99.90;;;;;;5045617;28;20744;-73
2022/02/21 11:29:47;;;;;;;21.50;6.23;;;3.50;99.90;;;;;;5085738;28;20044;-75
2022/02/21 11:32:18;;;;;;;20.67;6.70;;;3.70;99.90;;;;;;5053928;28;20083;-76
2022/02/21 11:34:47;;;;;;;;;;;3.80;99.90;;;;;;5032727;28;20043;-76
2022/02/21 11:37:22;;;;;;;22.37;6.60;;;3.90;99.90;;;;;;5053688;28;19928;-75
2022/02/21 11:39:54;;;;;;;29.60;6.53;;;4.00;99.90;;;;;;5107202;27;20048;-76
2022/02/21 11:42:26;;;;;;;29.60;5.70;;;4.30;99.90;;;;;;5110016;27;20506;-76
2022/02/21 11:44:53;;;;;;;39.20;6.43;;;4.40;99.90;;;;;;5111168;27;20039;-76
2022/02/21 11:47:36;;;;;;;31.90;6.43;;;4.60;99.90;;;;;;5037764;28;20080;-75
2022/02/21 11:50:08;;;;;;;37.17;6.57;;;4.70;99.90;;;;;;5103757;27;20051;-75
2022/02/21 11:52:36;;;;;;;36.40;6.47;;;4.80;99.90;;;;;;5068599;28;20035;-74
2022/02/21 11:55:23;;;;;;;28.20;6.00;;;5.00;99.90;;;;;;5062358;28;20048;-73
2022/02/21 11:57:49;;;;;;;32.60;6.43;;;5.20;99.90;;;;;;5114934;27;20112;-79
2022/02/21 12:00:39;;;;;;;37.93;6.87;;;5.30;99.90;;;;;;5056856;28;20036;-75
2022/02/21 12:03:17;;;;;;;38.77;6.83;;;5.40;99.90;;;;;;5114505;27;20059;-75
2022/02/21 12:05:48;;;;;;;28.17;5.63;;;5.40;99.90;;;;;;5103318;27;20040;-75
2022/02/21 12:08:28;;;;;;;;;;;5.50;99.90;;;;;;5066270;28;20032;-75
2022/02/21 12:11:07;;;;;;;30.97;6.37;;;5.60;99.90;;;;;;5098432;28;19934;-75
2022/02/21 12:13:45;;;;;;;29.20;5.43;;;5.70;99.90;;;;;;5101316;28;20049;-75
2022/02/21 12:16:15;;;;;;;39.75;6.10;;;5.80;99.90;;;;;;5079702;28;20127;-75
2022/02/21 12:18:46;;;;;;;34.83;6.35;;;5.90;99.90;;;;;;5058540;28;20064;-75
2022/02/21 12:21:18;;;;;;;34.35;6.32;;;6.10;99.90;;;;;;5078264;28;20102;-75
2022/02/21 12:23:59;;;;;;;40.60;7.05;;;6.20;99.90;;;;;;5062652;28;20127;-75
2022/02/21 12:26:29;;;;;;;36.47;5.53;;;6.20;99.90;;;;;;5053875;28;20618;-75
2022/02/21 12:29:23;;;;;;;27.50;5.18;;;6.30;99.90;;;;;;5075533;28;20048;-75
2022/02/21 12:31:59;;;;;;;30.30;5.82;;;6.50;99.90;;;;;;5105473;28;20059;-74
2022/02/21 12:34:33;;;;;;;32.78;6.10;;;6.50;99.90;;;;;;5101573;28;20052;-75
2022/02/21 12:37:10;;;;;;;39.47;6.32;;;6.60;99.90;;;;;;5067901;28;20089;-75
2022/02/21 12:39:39;;;;;;;39.72;6.90;;;6.60;99.90;;;;;;5096642;28;20623;-75
2022/02/21 12:42:05;;;;;;;40.58;6.90;;;6.70;99.90;;;;;;5096656;28;20097;-75
2022/02/21 12:44:31;;;;;;;35.78;6.68;;;6.70;99.90;;;;;;5049900;28;20633;-75
2022/02/21 12:47:00;;;;;;;38.70;6.90;;;6.80;99.90;;;;;;5039625;28;20072;-75
2022/02/21 12:49:29;;;;;;;37.05;7.15;;;6.90;99.90;;;;;;5103099;28;20056;-75